createdAt,value
2023-02-26T00:00:15.258Z,-0.76
2023-02-26T00:02:43.079Z,-0.81
2023-02-26T00:05:10.401Z,-0.77
2023-02-26T00:07:37.787Z,-0.80
2023-02-26T00:10:07.577Z,-0.87
2023-02-26T00:12:34.881Z,-0.81
2023-02-26T00:15:01.898Z,-0.80
2023-02-26T00:17:41.204Z,-0.78
2023-02-26T00:20:09.034Z,-0.76
2023-02-26T00:22:36.367Z,-0.78
2023-02-26T00:25:03.088Z,-0.82
2023-02-26T00:27:29.969Z,-0.81
2023-02-26T00:29:56.864Z,-0.75
2023-02-26T00:32:23.779Z,-0.89
2023-02-26T00:34:51.000Z,-0.96
2023-02-26T00:37:53.122Z,-1.00
2023-02-26T00:40:44.217Z,-0.99
2023-02-26T00:43:15.281Z,-0.81
2023-02-26T00:46:15.914Z,-0.77
2023-02-26T00:49:08.748Z,-0.89
2023-02-26T00:51:42.005Z,-0.91
2023-02-26T00:54:21.837Z,-0.88
2023-02-26T00:56:50.341Z,-0.97
2023-02-26T00:59:18.184Z,-0.96
2023-02-26T01:01:45.609Z,-0.78
2023-02-26T01:04:13.562Z,-0.93
2023-02-26T01:06:46.926Z,-0.81
2023-02-26T01:09:22.546Z,-0.82
2023-02-26T01:11:50.451Z,-0.93
2023-02-26T01:14:17.863Z,-0.90
2023-02-26T01:17:08.327Z,-0.82
2023-02-26T01:19:47.218Z,-0.94
2023-02-26T01:22:19.985Z,-0.93
2023-02-26T01:24:49.592Z,-0.91
2023-02-26T01:27:16.428Z,-0.90
2023-02-26T01:29:43.278Z,-0.95
2023-02-26T01:32:23.464Z,-0.90
2023-02-26T01:35:20.037Z,-1.01
2023-02-26T01:37:57.636Z,-0.91
2023-02-26T01:41:01.890Z,-0.89
2023-02-26T01:43:59.431Z,-1.03
2023-02-26T01:46:34.680Z,-0.90
2023-02-26T01:49:01.728Z,-1.07
2023-02-26T01:51:58.688Z,-1.07
2023-02-26T01:54:30.316Z,-1.04
2023-02-26T01:57:05.160Z,-1.09
2023-02-26T01:59:38.868Z,-1.20
2023-02-26T02:02:08.372Z,-1.26
2023-02-26T02:04:35.267Z,-1.11
2023-02-26T02:07:02.405Z,-1.12
2023-02-26T02:09:29.180Z,-1.12
2023-02-26T02:12:13.846Z,-1.05
2023-02-26T02:14:54.108Z,-1.11
2023-02-26T02:17:39.158Z,-1.07
2023-02-26T02:20:43.931Z,-1.05
2023-02-26T02:23:19.889Z,-1.07
2023-02-26T02:26:20.092Z,-1.14
2023-02-26T02:29:12.013Z,-1.11
2023-02-26T02:31:48.389Z,-1.01
2023-02-26T02:34:27.650Z,-1.05
2023-02-26T02:37:14.540Z,-1.13
2023-02-26T02:39:46.922Z,-1.06
2023-02-26T02:42:16.617Z,-1.16
2023-02-26T02:44:49.053Z,-1.07
2023-02-26T02:47:19.804Z,-1.04
2023-02-26T02:49:52.779Z,-1.19
2023-02-26T02:52:58.161Z,-1.06
2023-02-26T02:55:30.239Z,-1.11
2023-02-26T02:58:18.334Z,-1.26
2023-02-26T03:00:53.155Z,-1.19
2023-02-26T03:03:28.274Z,-1.23
2023-02-26T03:05:54.784Z,-1.10
2023-02-26T03:08:26.701Z,-1.14
2023-02-26T03:10:53.565Z,-1.09
2023-02-26T03:13:22.916Z,-1.18
2023-02-26T03:16:23.296Z,-1.21
2023-02-26T03:19:21.302Z,-1.23
2023-02-26T03:21:56.463Z,-1.17
2023-02-26T03:24:32.535Z,-1.43
2023-02-26T03:27:18.720Z,-1.65
2023-02-26T03:29:55.800Z,-1.56
2023-02-26T03:32:34.786Z,-1.74
2023-02-26T03:35:27.097Z,-1.71
2023-02-26T03:37:59.177Z,-1.76
2023-02-26T03:40:30.768Z,-1.89
2023-02-26T03:43:03.696Z,-1.89
2023-02-26T03:45:35.629Z,-1.75
2023-02-26T03:48:07.932Z,-1.91
2023-02-26T03:50:48.232Z,-1.83
2023-02-26T03:53:21.394Z,-1.78
2023-02-26T03:55:56.487Z,-1.73
2023-02-26T03:58:23.434Z,-1.80
2023-02-26T04:00:57.660Z,-1.75
2023-02-26T04:03:37.191Z,-1.76
2023-02-26T04:06:04.927Z,-1.85
2023-02-26T04:08:31.904Z,-1.93
2023-02-26T04:11:06.763Z,-1.87
2023-02-26T04:13:33.842Z,-1.92
2023-02-26T04:16:00.528Z,-1.85
2023-02-26T04:18:27.341Z,-1.88
2023-02-26T04:20:53.955Z,-1.86
2023-02-26T04:23:20.583Z,-1.89
2023-02-26T04:25:47.275Z,-1.83
2023-02-26T04:28:13.980Z,-1.91
2023-02-26T04:30:40.592Z,-1.94
2023-02-26T04:33:07.376Z,-1.90
2023-02-26T04:35:33.954Z,-1.87
2023-02-26T04:38:00.681Z,-1.95
2023-02-26T04:40:27.772Z,-1.87
2023-02-26T04:42:54.363Z,-1.86
2023-02-26T04:45:20.959Z,-1.89
2023-02-26T04:47:47.552Z,-1.88
2023-02-26T04:50:14.891Z,-1.99
2023-02-26T04:52:41.819Z,-1.99
2023-02-26T04:55:08.782Z,-1.94
2023-02-26T04:57:35.346Z,-1.87
2023-02-26T05:00:02.271Z,-1.87
2023-02-26T05:02:28.915Z,-1.87
2023-02-26T05:04:55.644Z,-1.86
2023-02-26T05:07:22.200Z,-1.93
2023-02-26T05:09:48.825Z,-1.91
2023-02-26T05:12:16.217Z,-1.77
2023-02-26T05:14:42.912Z,-1.82
2023-02-26T05:17:09.902Z,-1.90
2023-02-26T05:19:36.531Z,-1.92
2023-02-26T05:22:03.138Z,-1.90
2023-02-26T05:24:29.800Z,-1.95
2023-02-26T05:26:56.400Z,-1.89
2023-02-26T05:29:23.190Z,-1.85
2023-02-26T05:31:49.993Z,-1.86
2023-02-26T05:34:16.792Z,-1.98
2023-02-26T05:36:43.269Z,-1.95
2023-02-26T05:39:10.611Z,-1.84
2023-02-26T05:41:37.171Z,-1.85
2023-02-26T05:44:03.895Z,-1.92
2023-02-26T05:46:30.713Z,-1.88
2023-02-26T05:48:57.454Z,-1.82
2023-02-26T05:51:24.143Z,-1.86
2023-02-26T05:53:50.816Z,-1.90
2023-02-26T05:56:17.982Z,-1.87
2023-02-26T05:58:44.878Z,-1.94
2023-02-26T06:01:11.747Z,-1.97
2023-02-26T06:03:40.343Z,-1.99
2023-02-26T06:06:07.169Z,-1.89
2023-02-26T06:08:33.952Z,-1.81
2023-02-26T06:11:00.579Z,-1.80
2023-02-26T06:13:27.518Z,-1.81
2023-02-26T06:15:54.255Z,-1.82
2023-02-26T06:18:21.020Z,-1.92
2023-02-26T06:20:47.912Z,-1.86
2023-02-26T06:23:15.187Z,-1.79
2023-02-26T06:25:42.778Z,-1.84
2023-02-26T06:28:09.468Z,-1.79
2023-02-26T06:30:37.089Z,-1.82
2023-02-26T06:33:04.078Z,-1.71
2023-02-26T06:35:30.808Z,-1.77
2023-02-26T06:37:57.918Z,-1.76
2023-02-26T06:40:24.692Z,-1.68
2023-02-26T06:42:51.314Z,-1.56
2023-02-26T06:45:17.969Z,-1.65
2023-02-26T06:47:44.785Z,-1.56
2023-02-26T06:50:12.050Z,-1.47
2023-02-26T06:52:38.912Z,-1.65
2023-02-26T06:55:06.104Z,-1.57
2023-02-26T06:57:33.143Z,-1.56
2023-02-26T07:00:01.241Z,-1.62
2023-02-26T07:02:28.208Z,-1.61
2023-02-26T07:04:54.905Z,-1.60
2023-02-26T07:07:21.503Z,-1.50
2023-02-26T07:09:48.340Z,-1.58
2023-02-26T07:12:15.181Z,-1.50
2023-02-26T07:14:43.349Z,-1.49
2023-02-26T07:17:10.655Z,-1.49
2023-02-26T07:19:37.406Z,-1.47
2023-02-26T07:22:04.030Z,-1.54
2023-02-26T07:24:30.789Z,-1.56
2023-02-26T07:26:57.481Z,-1.54
2023-02-26T07:29:24.168Z,-1.51
2023-02-26T07:31:50.946Z,-1.44
2023-02-26T07:34:17.813Z,-1.50
2023-02-26T07:36:44.580Z,-1.39
2023-02-26T07:39:11.787Z,-1.33
2023-02-26T07:41:38.494Z,-1.27
2023-02-26T07:44:05.262Z,-1.45
2023-02-26T07:46:31.970Z,-1.36
2023-02-26T07:48:58.573Z,-1.50
2023-02-26T07:51:25.545Z,-1.54
2023-02-26T07:53:52.446Z,-1.46
2023-02-26T07:56:19.021Z,-1.44
2023-02-26T07:58:45.688Z,-1.48
2023-02-26T08:01:12.721Z,-1.31
2023-02-26T08:03:39.304Z,-1.25
2023-02-26T08:06:06.386Z,-1.29
2023-02-26T08:08:33.406Z,-1.09
2023-02-26T08:11:01.264Z,-1.16
2023-02-26T08:13:28.216Z,-1.06
2023-02-26T08:15:55.009Z,-1.02
2023-02-26T08:18:21.694Z,-0.86
2023-02-26T08:20:52.275Z,-0.92
2023-02-26T08:23:19.439Z,-0.53
2023-02-26T08:25:46.227Z,-0.28
2023-02-26T08:28:13.205Z,-0.29
2023-02-26T08:30:39.972Z,-0.17
2023-02-26T08:33:06.812Z,0.11
2023-02-26T08:35:33.430Z,0.30
2023-02-26T08:38:00.366Z,0.50
2023-02-26T08:40:27.136Z,0.67
2023-02-26T08:42:53.745Z,0.87
2023-02-26T08:45:20.302Z,0.66
2023-02-26T08:47:56.095Z,0.82
2023-02-26T08:50:24.665Z,0.82
2023-02-26T08:52:51.430Z,0.83
2023-02-26T08:55:18.134Z,0.80
2023-02-26T08:57:44.916Z,0.73
2023-02-26T09:00:16.264Z,0.78
2023-02-26T09:02:43.319Z,0.73
2023-02-26T09:05:10.470Z,0.88
2023-02-26T09:07:37.145Z,1.12
2023-02-26T09:10:05.353Z,1.55
2023-02-26T09:12:32.597Z,1.89
2023-02-26T09:15:00.597Z,2.35
2023-02-26T09:17:27.359Z,3.40
2023-02-26T09:19:54.217Z,3.17
2023-02-26T09:22:20.850Z,3.24
2023-02-26T09:24:47.289Z,2.93
2023-02-26T09:27:14.062Z,2.65
2023-02-26T09:29:40.681Z,2.24
2023-02-26T09:32:08.856Z,2.46
2023-02-26T09:34:36.704Z,2.41
2023-02-26T09:37:07.844Z,2.64
2023-02-26T09:39:35.819Z,3.23
2023-02-26T09:42:11.144Z,3.63
2023-02-26T09:44:38.832Z,3.57
2023-02-26T09:47:13.671Z,3.04
2023-02-26T09:49:50.617Z,3.32
2023-02-26T09:52:45.405Z,3.02
2023-02-26T09:55:30.232Z,2.42
2023-02-26T09:58:00.835Z,2.48
2023-02-26T10:00:52.753Z,2.84
2023-02-26T10:03:32.266Z,2.04
2023-02-26T10:06:21.910Z,2.33
2023-02-26T10:09:23.308Z,2.31
2023-02-26T10:12:23.244Z,2.24
2023-02-26T10:14:56.016Z,1.89
2023-02-26T10:17:47.125Z,2.04
2023-02-26T10:20:29.172Z,2.01
2023-02-26T10:23:33.819Z,2.21
2023-02-26T10:26:28.225Z,2.28
2023-02-26T10:29:33.019Z,2.11
2023-02-26T10:32:02.922Z,1.54
2023-02-26T10:34:37.440Z,1.43
2023-02-26T10:37:13.306Z,1.74
2023-02-26T10:39:59.973Z,1.76
2023-02-26T10:42:32.151Z,1.65
2023-02-26T10:45:26.932Z,1.92
2023-02-26T10:48:12.257Z,2.38
2023-02-26T10:50:49.182Z,3.00
2023-02-26T10:53:15.866Z,3.55
2023-02-26T10:55:48.731Z,3.60
2023-02-26T10:58:22.659Z,3.87
2023-02-26T11:00:53.965Z,4.01
2023-02-26T11:03:33.387Z,3.99
2023-02-26T11:06:02.853Z,3.94
2023-02-26T11:08:37.047Z,4.17
2023-02-26T11:11:05.847Z,3.99
2023-02-26T11:13:35.416Z,3.96
2023-02-26T11:16:06.764Z,4.01
2023-02-26T11:18:41.460Z,4.30
2023-02-26T11:21:17.097Z,4.26
2023-02-26T11:23:46.293Z,4.51
2023-02-26T11:26:26.215Z,4.47
2023-02-26T11:28:56.394Z,4.50
2023-02-26T11:31:26.810Z,4.18
2023-02-26T11:34:00.147Z,3.93
2023-02-26T11:36:31.482Z,3.47
2023-02-26T11:39:08.852Z,3.35
2023-02-26T11:41:40.061Z,3.44
2023-02-26T11:44:18.864Z,3.80
2023-02-26T11:46:51.093Z,3.25
2023-02-26T11:49:20.695Z,3.19
2023-02-26T11:51:48.641Z,3.06
2023-02-26T11:54:24.836Z,3.16
2023-02-26T11:56:51.585Z,3.01
2023-02-26T11:59:21.292Z,2.81
2023-02-26T12:01:49.317Z,2.58
2023-02-26T12:04:21.625Z,2.57
2023-02-26T12:06:51.671Z,2.53
2023-02-26T12:09:19.372Z,2.40
2023-02-26T12:12:12.461Z,2.11
2023-02-26T12:14:50.921Z,1.88
2023-02-26T12:17:36.682Z,1.96
2023-02-26T12:20:27.218Z,1.70
2023-02-26T12:23:12.763Z,1.65
2023-02-26T12:26:13.683Z,1.77
2023-02-26T12:29:02.309Z,1.91
2023-02-26T12:31:36.811Z,1.71
2023-02-26T12:34:38.816Z,1.67
2023-02-26T12:37:23.803Z,1.62
2023-02-26T12:40:15.463Z,1.42
2023-02-26T12:43:08.035Z,1.43
2023-02-26T12:45:54.132Z,1.13
2023-02-26T12:48:42.949Z,1.18
2023-02-26T12:51:32.138Z,1.30
2023-02-26T12:54:27.500Z,1.58
2023-02-26T12:57:29.295Z,1.82
2023-02-26T13:00:06.396Z,1.68
2023-02-26T13:02:54.963Z,1.66
2023-02-26T13:05:26.264Z,2.00
2023-02-26T13:08:07.542Z,1.90
2023-02-26T13:10:43.189Z,1.71
2023-02-26T13:13:09.856Z,1.88
2023-02-26T13:15:43.094Z,1.93
2023-02-26T13:18:35.429Z,1.68
2023-02-26T13:21:13.956Z,1.83
2023-02-26T13:23:53.431Z,1.64
2023-02-26T13:26:22.131Z,1.78
2023-02-26T13:29:05.012Z,1.79
2023-02-26T13:31:49.361Z,1.73
2023-02-26T13:34:23.557Z,1.68
2023-02-26T13:36:51.221Z,1.59
2023-02-26T13:39:44.114Z,1.79
2023-02-26T13:42:40.320Z,2.06
2023-02-26T13:45:22.515Z,1.91
2023-02-26T13:48:19.412Z,2.03
2023-02-26T13:50:59.013Z,2.35
2023-02-26T13:53:30.069Z,2.17
2023-02-26T13:56:14.556Z,1.85
2023-02-26T13:59:09.796Z,1.81
2023-02-26T14:01:49.332Z,1.99
2023-02-26T14:04:25.325Z,2.05
2023-02-26T14:07:00.472Z,1.98
2023-02-26T14:09:37.314Z,1.80
2023-02-26T14:12:13.218Z,1.73
2023-02-26T14:15:05.864Z,1.74
2023-02-26T14:17:35.528Z,1.85
2023-02-26T14:20:02.115Z,1.55
2023-02-26T14:22:28.770Z,1.47
2023-02-26T14:24:58.399Z,1.80
2023-02-26T14:27:47.348Z,2.19
2023-02-26T14:30:18.312Z,2.27
2023-02-26T14:33:08.328Z,2.03
2023-02-26T14:35:41.000Z,1.92
2023-02-26T14:38:16.116Z,1.90
2023-02-26T14:40:58.134Z,2.01
2023-02-26T14:43:46.394Z,2.14
2023-02-26T14:46:13.485Z,2.23
2023-02-26T14:48:40.391Z,2.22
2023-02-26T14:51:26.357Z,2.05
2023-02-26T14:54:03.027Z,1.91
2023-02-26T14:56:39.798Z,1.79
2023-02-26T14:59:12.267Z,1.56
2023-02-26T15:01:46.471Z,1.69
2023-02-26T15:04:19.146Z,1.43
2023-02-26T15:07:04.035Z,1.56
2023-02-26T15:09:33.743Z,1.69
2023-02-26T15:12:16.548Z,1.72
2023-02-26T15:15:07.552Z,1.73
2023-02-26T15:18:07.768Z,1.42
2023-02-26T15:20:48.939Z,1.18
2023-02-26T15:23:30.073Z,1.25
2023-02-26T15:25:59.544Z,1.28
2023-02-26T15:28:30.566Z,1.24
2023-02-26T15:31:00.046Z,1.21
2023-02-26T15:33:28.054Z,0.99
2023-02-26T15:35:56.661Z,0.91
2023-02-26T15:38:23.813Z,1.04
2023-02-26T15:40:54.205Z,1.05
2023-02-26T15:43:25.900Z,1.14
2023-02-26T15:45:56.333Z,1.07
2023-02-26T15:48:37.791Z,1.08
2023-02-26T15:51:08.324Z,1.12
2023-02-26T15:53:41.306Z,1.19
2023-02-26T15:56:21.090Z,1.01
2023-02-26T15:58:55.058Z,1.09
2023-02-26T16:01:24.677Z,0.92
2023-02-26T16:03:53.786Z,1.00
2023-02-26T16:06:29.718Z,0.87
2023-02-26T16:08:56.562Z,0.88
2023-02-26T16:11:24.122Z,0.88
2023-02-26T16:13:53.223Z,0.84
2023-02-26T16:16:28.107Z,0.91
2023-02-26T16:18:58.107Z,0.77
2023-02-26T16:21:34.482Z,0.85
2023-02-26T16:24:03.547Z,0.84
2023-02-26T16:26:39.713Z,0.86
2023-02-26T16:29:13.657Z,0.83
2023-02-26T16:31:41.987Z,0.70
2023-02-26T16:34:36.248Z,0.69
2023-02-26T16:37:25.422Z,0.61
2023-02-26T16:40:19.232Z,0.61
2023-02-26T16:42:53.080Z,0.41
2023-02-26T16:45:35.140Z,0.54
2023-02-26T16:48:06.000Z,0.44
2023-02-26T16:50:35.894Z,0.33
2023-02-26T16:53:19.865Z,0.44
2023-02-26T16:55:53.689Z,0.47
2023-02-26T16:58:23.064Z,0.47
2023-02-26T17:01:00.114Z,0.55
2023-02-26T17:03:27.584Z,0.45
2023-02-26T17:06:00.662Z,0.46
2023-02-26T17:08:32.819Z,0.41
2023-02-26T17:11:07.155Z,0.34
2023-02-26T17:13:35.398Z,0.43
2023-02-26T17:16:04.078Z,0.46
2023-02-26T17:18:31.669Z,0.41
2023-02-26T17:20:59.681Z,0.39
2023-02-26T17:23:30.152Z,0.42
2023-02-26T17:25:57.407Z,0.30
2023-02-26T17:28:27.948Z,0.30
2023-02-26T17:30:55.432Z,0.31
2023-02-26T17:33:22.145Z,0.35
2023-02-26T17:35:49.374Z,0.31
2023-02-26T17:38:16.652Z,0.36
2023-02-26T17:40:47.601Z,0.39
2023-02-26T17:43:14.419Z,0.43
2023-02-26T17:45:41.381Z,0.40
2023-02-26T17:48:08.605Z,0.36
2023-02-26T17:50:47.536Z,0.28
2023-02-26T17:53:18.827Z,0.20
2023-02-26T17:55:47.272Z,0.19
2023-02-26T17:58:18.024Z,0.17
2023-02-26T18:00:49.796Z,0.12
2023-02-26T18:03:17.202Z,0.12
2023-02-26T18:05:43.953Z,0.08
2023-02-26T18:08:27.741Z,0.07
2023-02-26T18:10:55.947Z,0.05
2023-02-26T18:13:23.088Z,0.00
2023-02-26T18:15:50.957Z,-0.03
2023-02-26T18:18:18.582Z,-0.06
2023-02-26T18:20:46.349Z,-0.13
2023-02-26T18:23:14.899Z,-0.15
2023-02-26T18:25:42.947Z,-0.20
2023-02-26T18:28:16.241Z,-0.23
2023-02-26T18:30:45.209Z,-0.26
2023-02-26T18:33:13.236Z,-0.28
2023-02-26T18:35:45.937Z,-0.35
2023-02-26T18:38:18.482Z,-0.35
2023-02-26T18:40:46.345Z,-0.38
2023-02-26T18:43:13.241Z,-0.48
2023-02-26T18:45:41.722Z,-0.53
2023-02-26T18:48:11.618Z,-0.48
2023-02-26T18:50:38.463Z,-0.60
2023-02-26T18:53:05.276Z,-0.71
2023-02-26T18:55:31.991Z,-0.83
2023-02-26T18:57:58.642Z,-0.93
2023-02-26T19:00:25.609Z,-1.03
2023-02-26T19:02:52.587Z,-1.13
2023-02-26T19:05:23.393Z,-1.15
2023-02-26T19:07:51.131Z,-1.24
2023-02-26T19:10:18.970Z,-1.37
2023-02-26T19:12:45.879Z,-1.53
2023-02-26T19:15:13.323Z,-1.66
2023-02-26T19:17:41.099Z,-1.68
2023-02-26T19:20:09.227Z,-1.63
2023-02-26T19:22:35.972Z,-1.69
2023-02-26T19:25:02.706Z,-1.74
2023-02-26T19:27:29.617Z,-1.78
2023-02-26T19:29:56.197Z,-1.77
2023-02-26T19:32:22.991Z,-1.86
2023-02-26T19:34:49.755Z,-1.91
2023-02-26T19:37:16.304Z,-2.00
2023-02-26T19:39:43.000Z,-2.05
2023-02-26T19:42:10.168Z,-2.14
2023-02-26T19:44:36.838Z,-2.15
2023-02-26T19:47:03.623Z,-2.24
2023-02-26T19:49:30.313Z,-2.32
2023-02-26T19:51:57.051Z,-2.41
2023-02-26T19:54:24.087Z,-2.55
2023-02-26T19:56:50.980Z,-2.57
2023-02-26T19:59:17.761Z,-2.52
2023-02-26T20:01:46.739Z,-2.51
2023-02-26T20:04:13.956Z,-2.52
2023-02-26T20:06:40.790Z,-2.64
2023-02-26T20:09:07.474Z,-2.70
2023-02-26T20:11:35.005Z,-2.70
2023-02-26T20:14:02.565Z,-2.77
2023-02-26T20:16:29.065Z,-2.83
2023-02-26T20:18:55.890Z,-2.84
2023-02-26T20:21:23.509Z,-2.85
2023-02-26T20:23:50.321Z,-2.83
2023-02-26T20:26:17.581Z,-2.65
2023-02-26T20:28:44.687Z,-2.72
2023-02-26T20:31:11.930Z,-2.77
2023-02-26T20:33:39.623Z,-2.83
2023-02-26T20:36:08.736Z,-2.86
2023-02-26T20:38:35.530Z,-2.95
2023-02-26T20:41:02.174Z,-2.96
2023-02-26T20:43:31.277Z,-3.05
2023-02-26T20:45:58.123Z,-3.02
2023-02-26T20:48:25.367Z,-3.04
2023-02-26T20:50:53.780Z,-3.01
2023-02-26T20:53:21.754Z,-2.97
2023-02-26T20:55:48.918Z,-2.85
2023-02-26T20:58:15.876Z,-2.80
2023-02-26T21:00:42.909Z,-2.83
2023-02-26T21:03:09.789Z,-2.89
2023-02-26T21:05:36.524Z,-2.98
2023-02-26T21:08:04.361Z,-3.07
2023-02-26T21:10:32.921Z,-3.15
2023-02-26T21:13:00.210Z,-3.19
2023-02-26T21:15:26.973Z,-3.17
2023-02-26T21:17:54.001Z,-3.26
2023-02-26T21:20:22.526Z,-3.33
2023-02-26T21:22:49.704Z,-3.42
2023-02-26T21:25:17.948Z,-3.46
2023-02-26T21:27:44.536Z,-3.51
2023-02-26T21:30:13.276Z,-3.64
2023-02-26T21:32:40.886Z,-3.64
2023-02-26T21:35:09.188Z,-3.73
2023-02-26T21:37:35.857Z,-3.78
2023-02-26T21:40:02.506Z,-3.78
2023-02-26T21:42:29.029Z,-3.77
2023-02-26T21:44:55.532Z,-3.63
2023-02-26T21:47:22.219Z,-3.62
2023-02-26T21:49:49.050Z,-3.54
2023-02-26T21:52:15.723Z,-3.49
2023-02-26T21:54:42.466Z,-3.31
2023-02-26T21:57:09.468Z,-3.22
2023-02-26T21:59:36.223Z,-3.18
2023-02-26T22:02:03.950Z,-3.25
2023-02-26T22:04:30.592Z,-3.32
2023-02-26T22:06:57.432Z,-3.40
2023-02-26T22:09:24.170Z,-3.51
2023-02-26T22:11:50.922Z,-3.54
2023-02-26T22:14:17.503Z,-3.57
2023-02-26T22:16:44.164Z,-3.68
2023-02-26T22:19:10.852Z,-3.74
2023-02-26T22:21:37.485Z,-3.75
2023-02-26T22:24:05.576Z,-3.86
2023-02-26T22:26:32.518Z,-3.77
2023-02-26T22:29:00.896Z,-3.59
2023-02-26T22:31:29.353Z,-3.48
2023-02-26T22:33:57.423Z,-3.41
2023-02-26T22:36:25.088Z,-3.21
2023-02-26T22:38:51.699Z,-3.10
2023-02-26T22:41:18.283Z,-3.11
2023-02-26T22:43:45.216Z,-3.11
2023-02-26T22:46:11.900Z,-3.07
2023-02-26T22:48:38.528Z,-3.12
2023-02-26T22:51:05.251Z,-3.13
2023-02-26T22:53:32.011Z,-3.14
2023-02-26T22:55:58.851Z,-3.06
2023-02-26T22:58:25.512Z,-2.92
2023-02-26T23:01:02.167Z,-2.82
2023-02-26T23:03:29.881Z,-2.73
2023-02-26T23:05:57.057Z,-2.69
2023-02-26T23:08:24.161Z,-2.65
2023-02-26T23:10:50.708Z,-2.59
2023-02-26T23:13:17.264Z,-2.60
2023-02-26T23:15:43.999Z,-2.67
2023-02-26T23:18:10.710Z,-2.67
2023-02-26T23:20:37.402Z,-2.74
2023-02-26T23:23:04.217Z,-2.83
2023-02-26T23:25:30.973Z,-2.94
2023-02-26T23:27:57.516Z,-2.97
2023-02-26T23:30:24.219Z,-3.07
2023-02-26T23:32:51.168Z,-3.17
2023-02-26T23:35:17.618Z,-3.20
2023-02-26T23:37:44.328Z,-3.34
2023-02-26T23:40:14.599Z,-3.34
2023-02-26T23:42:44.270Z,-3.39
2023-02-26T23:45:11.822Z,-3.38
2023-02-26T23:47:39.279Z,-3.34
2023-02-26T23:50:07.321Z,-3.32
2023-02-26T23:52:34.782Z,-3.29
2023-02-26T23:55:02.718Z,-3.31
2023-02-26T23:57:29.984Z,-3.31
2023-02-26T23:59:56.885Z,-3.30
